Time;durP1;ratioP1;P1;durP2;ratioP2;P2;SDS_P1;SDS_P2;PMS_P1;PMS_P2;Temp;Humidity;BMP_temperature;BMP_pressure;BME280_temperature;BME280_humidity;BME280_pressure;Samples;Min_cycle;Max_cycle;Signal;HPM_P1;HPM_P2
2022/10/15 00:00:48;;;;;;;14.05;8.20;;;15.90;99.90;;;;;;6249308;22;20028;-92
2022/10/15 00:03:23;;;;;;;13.27;7.53;;;15.90;99.90;;;;;;6193874;23;20422;-93
2022/10/15 00:06:16;;;;;;;12.10;7.28;;;15.90;99.90;;;;;;6223646;23;20099;-92
2022/10/15 00:08:43;;;;;;;9.57;7.40;;;15.90;99.90;;;;;;6191924;23;20078;-93
2022/10/15 00:11:22;;;;;;;15.38;7.70;;;15.90;99.90;;;;;;6192805;23;20031;-92
2022/10/15 00:14:26;;;;;;;14.15;8.00;;;15.90;99.90;;;;;;6197990;23;20012;-92
2022/10/15 00:16:52;;;;;;;13.23;7.72;;;15.90;99.90;;;;;;6196492;23;20035;-92
2022/10/15 00:19:22;;;;;;;16.05;8.40;;;15.90;99.90;;;;;;6194498;23;20108;-91
2022/10/15 00:21:49;;;;;;;16.58;8.40;;;15.80;99.90;;;;;;6216106;23;20008;-92
2022/10/15 00:24:19;;;;;;;13.85;7.93;;;15.90;99.90;;;;;;6192187;23;20080;-92
2022/10/15 00:26:48;;;;;;;18.35;9.20;;;15.80;99.90;;;;;;6190653;23;20039;-93
2022/10/15 00:29:14;;;;;;;13.10;8.38;;;15.80;99.90;;;;;;6192527;23;20087;-91
2022/10/15 00:31:41;;;;;;;12.85;9.02;;;15.80;99.90;;;;;;6191895;23;20415;-93
2022/10/15 00:34:09;;;;;;;13.68;8.68;;;15.80;99.90;;;;;;6216768;23;20304;-92
2022/10/15 00:36:45;;;;;;;13.38;8.15;;;15.80;99.90;;;;;;6191827;23;20004;-93
2022/10/15 00:39:12;;;;;;;13.43;8.90;;;15.70;99.90;;;;;;6191855;23;20013;-91
2022/10/15 00:41:43;;;;;;;12.23;8.60;;;15.80;99.90;;;;;;6190568;23;20005;-91
2022/10/15 00:44:27;;;;;;;14.93;9.30;;;15.70;99.90;;;;;;6190548;23;20005;-94
2022/10/15 00:47:18;;;;;;;12.52;8.25;;;15.70;99.90;;;;;;6215700;23;20016;-92
2022/10/15 00:50:00;;;;;;;12.68;8.90;;;15.70;99.90;;;;;;6190512;23;20012;-92
2022/10/15 00:52:58;;;;;;;15.55;8.93;;;15.70;99.90;;;;;;6190467;23;20075;-92
2022/10/15 00:55:31;;;;;;;15.55;9.13;;;15.70;99.90;;;;;;6190591;23;20009;-92
2022/10/15 00:58:33;;;;;;;12.55;9.73;;;15.70;99.90;;;;;;6191002;23;20031;-93
2022/10/15 01:01:09;;;;;;;21.02;12.63;;;15.70;99.90;;;;;;6188052;23;20439;-92
2022/10/15 01:03:37;;;;;;;16.48;10.07;;;15.60;99.90;;;;;;6186591;23;20009;-93
2022/10/15 01:06:04;;;;;;;17.48;10.18;;;15.60;99.90;;;;;;6186312;23;20063;-91
2022/10/15 01:08:34;;;;;;;12.43;10.13;;;15.60;99.90;;;;;;6187718;23;20009;-93
2022/10/15 01:11:20;;;;;;;16.05;10.95;;;15.60;99.90;;;;;;6192327;23;20009;-92
2022/10/15 01:13:47;;;;;;;19.75;10.15;;;15.50;99.90;;;;;;6188246;23;20009;-92
2022/10/15 01:16:47;;;;;;;20.73;10.05;;;15.50;99.90;;;;;;6186622;23;20028;-93
2022/10/15 01:19:41;;;;;;;18.00;10.27;;;15.50;99.90;;;;;;6186738;23;20474;-92
2022/10/15 01:22:47;;;;;;;17.70;10.65;;;15.40;99.90;;;;;;6188115;23;20019;-94
2022/10/15 01:25:54;;;;;;;19.23;11.15;;;15.40;99.90;;;;;;6186696;23;20048;-93
2022/10/15 01:28:43;;;;;;;18.55;10.75;;;15.40;99.90;;;;;;6162604;23;20009;-93
2022/10/15 01:31:24;;;;;;;16.58;10.90;;;15.40;99.90;;;;;;6187077;23;20008;-92
2022/10/15 01:34:21;;;;;;;14.10;11.40;;;15.40;99.90;;;;;;6188214;23;20384;-94
2022/10/15 01:37:10;;;;;;;16.92;11.10;;;15.30;99.90;;;;;;6177010;23;20016;-95
2022/10/15 01:40:19;;;;;;;16.55;10.80;;;15.30;99.90;;;;;;6187821;23;20021;-91
2022/10/15 01:42:58;;;;;;;16.05;11.15;;;15.30;99.90;;;;;;6187784;23;20024;-93
2022/10/15 01:45:42;;;;;;;17.55;10.43;;;15.30;99.90;;;;;;6189667;23;20013;-93
2022/10/15 01:48:16;;;;;;;13.73;10.77;;;15.20;99.90;;;;;;6197954;23;20005;-92
2022/10/15 01:50:50;;;;;;;18.70;11.70;;;15.20;99.90;;;;;;6199182;23;20013;-93
2022/10/15 01:53:33;;;;;;;14.02;10.95;;;15.20;99.90;;;;;;6194719;23;20012;-94
2022/10/15 01:56:08;;;;;;;17.25;11.40;;;15.10;99.90;;;;;;6187444;23;20453;-92
2022/10/15 01:58:43;;;;;;;17.48;11.27;;;15.10;99.90;;;;;;6187041;23;20041;-92
2022/10/15 02:01:10;;;;;;;17.20;11.02;;;15.10;99.90;;;;;;6186752;23;20021;-93
2022/10/15 02:03:52;;;;;;;20.85;10.50;;;15.00;99.90;;;;;;6187301;23;20013;-92
2022/10/15 02:06:28;;;;;;;23.23;11.38;;;15.00;99.90;;;;;;6187449;23;20009;-93
2022/10/15 02:09:19;;;;;;;14.82;10.85;;;15.00;99.90;;;;;;6187449;23;20005;-93
2022/10/15 02:12:03;;;;;;;16.92;10.75;;;15.00;99.90;;;;;;6163275;23;20017;-93
2022/10/15 02:14:42;;;;;;;16.58;11.98;;;15.00;99.90;;;;;;6186811;23;20005;-91
2022/10/15 02:17:10;;;;;;;14.82;10.70;;;15.00;99.90;;;;;;6187150;23;20016;-93
2022/10/15 02:19:46;;;;;;;17.55;10.85;;;14.90;99.90;;;;;;6186663;23;20332;-94
2022/10/15 02:22:19;;;;;;;16.73;12.02;;;15.00;99.90;;;;;;6162086;23;20016;-93
2022/10/15 02:24:57;;;;;;;17.55;10.55;;;14.90;99.90;;;;;;6186915;23;20005;-93
2022/10/15 02:27:27;;;;;;;19.27;11.07;;;14.90;99.90;;;;;;6186945;23;20071;-93
2022/10/15 02:29:57;;;;;;;16.08;12.73;;;14.90;99.90;;;;;;6162445;23;20009;-91
2022/10/15 02:32:26;;;;;;;17.95;11.02;;;14.80;99.90;;;;;;6161921;23;20012;-93
2022/10/15 02:34:54;;;;;;;17.45;12.32;;;14.80;99.90;;;;;;6186772;23;20431;-93
2022/10/15 02:37:42;;;;;;;19.38;11.98;;;14.70;99.90;;;;;;6162597;23;20005;-93
2022/10/15 02:40:09;;;;;;;15.98;10.93;;;14.80;99.90;;;;;;6162209;23;20017;-93
2022/10/15 02:42:37;;;;;;;16.73;11.02;;;14.80;99.90;;;;;;6156494;23;20001;-92
2022/10/15 02:45:08;;;;;;;14.27;10.63;;;14.90;99.90;;;;;;6190105;23;20043;-93
2022/10/15 02:47:35;;;;;;;20.52;11.27;;;14.90;99.90;;;;;;6187591;23;20008;-94
2022/10/15 02:50:04;;;;;;;17.95;10.68;;;14.90;99.90;;;;;;6186764;23;20005;-93
2022/10/15 02:52:31;;;;;;;21.35;11.75;;;14.90;99.90;;;;;;6187062;23;20005;-94
2022/10/15 02:54:59;;;;;;;18.88;11.90;;;14.90;99.90;;;;;;6186328;23;20005;-93
2022/10/15 02:57:26;;;;;;;20.05;11.38;;;14.80;99.90;;;;;;6186759;23;20017;-93
2022/10/15 02:59:52;;;;;;;15.95;9.85;;;14.80;99.90;;;;;;6191664;23;20021;-93
2022/10/15 03:02:19;;;;;;;17.30;10.60;;;14.80;99.90;;;;;;6193142;23;20008;-93
2022/10/15 03:04:47;;;;;;;17.60;10.27;;;14.80;99.90;;;;;;6195888;23;20008;-93
2022/10/15 03:07:18;;;;;;;21.77;11.63;;;14.80;99.90;;;;;;6194117;23;20005;-94
2022/10/15 03:09:44;;;;;;;21.05;11.25;;;14.80;99.90;;;;;;6167766;23;20009;-93
2022/10/15 03:12:52;;;;;;;20.42;11.43;;;14.70;99.90;;;;;;6195576;23;20005;-93
2022/10/15 03:15:22;;;;;;;16.83;10.45;;;14.70;99.90;;;;;;6172646;23;20074;-94
2022/10/15 03:17:48;;;;;;;14.70;9.88;;;14.70;99.90;;;;;;6198242;23;20005;-92
2022/10/15 03:20:17;;;;;;;14.35;10.32;;;14.70;99.90;;;;;;6194136;23;20067;-92
2022/10/15 03:22:44;;;;;;;14.68;9.38;;;14.80;99.90;;;;;;6196865;23;20012;-93
2022/10/15 03:25:20;;;;;;;17.77;9.73;;;14.80;99.90;;;;;;6199502;23;20032;-93
2022/10/15 03:27:59;;;;;;;17.65;10.20;;;14.80;99.90;;;;;;6198161;23;20008;-91
2022/10/15 03:30:39;;;;;;;15.90;10.10;;;14.90;99.90;;;;;;6199161;23;20004;-92
2022/10/15 03:33:07;;;;;;;17.52;9.35;;;14.90;99.90;;;;;;6195249;23;20062;-92
2022/10/15 03:35:35;;;;;;;12.65;9.52;;;14.90;99.90;;;;;;6193644;23;20334;-92
2022/10/15 03:38:12;;;;;;;13.20;9.20;;;15.00;99.90;;;;;;6193979;23;20323;-94
2022/10/15 03:40:39;;;;;;;14.25;9.32;;;14.90;99.90;;;;;;6192673;23;20016;-92
2022/10/15 03:43:30;;;;;;;14.32;9.30;;;14.90;99.90;;;;;;6192637;23;20001;-92
2022/10/15 03:46:04;;;;;;;18.90;9.23;;;14.90;99.90;;;;;;6193890;23;20008;-93
2022/10/15 03:48:35;;;;;;;12.13;9.02;;;14.90;99.90;;;;;;6192936;23;20024;-93
2022/10/15 03:51:01;;;;;;;16.02;9.25;;;14.90;99.90;;;;;;6169895;23;20079;-93
2022/10/15 03:53:28;;;;;;;17.15;10.45;;;14.90;99.90;;;;;;6195546;23;20008;-93
2022/10/15 03:56:05;;;;;;;17.85;10.73;;;14.90;99.90;;;;;;6206548;23;20005;-92
2022/10/15 03:58:35;;;;;;;17.05;9.65;;;14.80;99.90;;;;;;6213093;23;20021;-92
2022/10/15 04:01:38;;;;;;;18.70;10.20;;;14.80;99.90;;;;;;6194706;23;20021;-92
2022/10/15 04:04:09;;;;;;;15.50;10.02;;;14.80;99.90;;;;;;6175732;23;20096;-93
2022/10/15 04:07:20;;;;;;;15.43;9.63;;;14.80;99.90;;;;;;6193355;23;20013;-93
2022/10/15 04:09:47;;;;;;;13.07;10.05;;;14.90;99.90;;;;;;6111358;23;20002;-92
2022/10/15 04:12:47;;;;;;;15.48;9.55;;;14.90;99.90;;;;;;6181128;22;20361;-93
2022/10/15 04:15:16;;;;;;;14.20;9.77;;;14.90;99.90;;;;;;6172727;23;20091;-92
2022/10/15 04:18:14;;;;;;;12.38;10.15;;;14.80;99.90;;;;;;6174924;23;20008;-93
2022/10/15 04:21:08;;;;;;;14.30;9.30;;;14.80;99.90;;;;;;6174143;23;20091;-93
2022/10/15 04:23:57;;;;;;;19.65;9.68;;;14.80;99.90;;;;;;6198204;23;20001;-93
2022/10/15 04:26:39;;;;;;;18.92;10.65;;;14.80;99.90;;;;;;6175220;23;20012;-93
2022/10/15 04:29:21;;;;;;;17.38;9.70;;;14.80;99.90;;;;;;6194565;23;20005;-92
2022/10/15 04:31:58;;;;;;;14.02;10.23;;;14.70;99.90;;;;;;6169696;23;20091;-92
2022/10/15 04:34:31;;;;;;;16.88;10.93;;;14.70;99.90;;;;;;6194358;23;20004;-93
2022/10/15 04:37:04;;;;;;;15.38;10.57;;;14.60;99.90;;;;;;6194575;23;20058;-93
2022/10/15 04:39:30;;;;;;;14.43;10.68;;;14.70;99.90;;;;;;6193840;23;20020;-93
2022/10/15 04:42:00;;;;;;;13.43;9.32;;;14.60;99.90;;;;;;6206626;23;20009;-93
2022/10/15 04:44:31;;;;;;;13.10;9.23;;;14.60;99.90;;;;;;6209794;23;20346;-92
2022/10/15 04:46:58;;;;;;;13.45;9.63;;;14.60;99.90;;;;;;6182573;23;20004;-92
2022/10/15 04:49:54;;;;;;;16.75;10.43;;;14.60;99.90;;;;;;6143659;23;20037;-92
2022/10/15 04:52:41;;;;;;;14.35;10.20;;;14.60;99.90;;;;;;6121898;23;20083;-92
2022/10/15 04:55:11;;;;;;;15.23;10.35;;;14.60;99.90;;;;;;6098259;23;20376;-93
2022/10/15 04:57:39;;;;;;;14.32;10.38;;;14.60;99.90;;;;;;6084504;23;20005;-94
2022/10/15 05:00:09;;;;;;;14.63;10.20;;;14.60;99.90;;;;;;6084218;23;20104;-92
2022/10/15 05:03:19;;;;;;;15.63;10.30;;;14.50;99.90;;;;;;6108065;23;20039;-93
2022/10/15 05:05:51;;;;;;;18.70;12.07;;;14.50;99.90;;;;;;6105101;23;20013;-93
2022/10/15 05:08:18;;;;;;;14.98;9.65;;;14.40;99.90;;;;;;6106717;23;20014;-93
2022/10/15 05:11:06;;;;;;;17.27;11.02;;;14.40;99.90;;;;;;6132134;23;20016;-93
2022/10/15 05:13:36;;;;;;;17.20;10.50;;;14.40;99.90;;;;;;6083802;23;20029;-93
2022/10/15 05:16:22;;;;;;;14.73;10.30;;;14.50;99.90;;;;;;6108466;23;20042;-94
2022/10/15 05:18:54;;;;;;;13.68;9.35;;;14.50;99.90;;;;;;6084980;23;20073;-93
2022/10/15 05:21:36;;;;;;;14.77;9.38;;;14.60;99.90;;;;;;6130870;23;20017;-92
2022/10/15 05:24:18;;;;;;;13.35;9.00;;;14.60;99.90;;;;;;6132013;23;20017;-92
2022/10/15 05:27:00;;;;;;;13.15;8.90;;;14.60;99.90;;;;;;6200561;23;20009;-92
2022/10/15 05:29:41;;;;;;;;;;;;;;;;;;;;;
2022/10/15 05:32:09;;;;;;;10.57;8.02;;;14.60;99.90;;;;;;6197468;23;20430;-92
2022/10/15 05:34:36;;;;;;;13.20;8.40;;;14.70;99.90;;;;;;6169094;23;20062;-93
2022/10/15 05:37:10;;;;;;;14.20;7.82;;;14.70;99.90;;;;;;6177923;23;20076;-94
2022/10/15 05:39:42;;;;;;;12.63;8.05;;;14.70;99.90;;;;;;6197300;23;20021;-92
2022/10/15 05:42:15;;;;;;;11.57;8.15;;;14.80;99.90;;;;;;6181247;23;20318;-91
2022/10/15 05:44:59;;;;;;;8.70;6.70;;;15.10;99.90;;;;;;6186130;23;20008;-91
2022/10/15 05:47:33;;;;;;;10.05;7.68;;;15.70;99.90;;;;;;6171977;23;20318;-93
2022/10/15 05:50:16;;;;;;;11.25;8.07;;;16.50;99.90;;;;;;6175551;23;20005;-90
2022/10/15 05:53:01;;;;;;;9.90;9.02;;;17.30;99.90;;;;;;6196488;23;20035;-92
2022/10/15 05:55:51;;;;;;;11.10;10.25;;;17.90;99.90;;;;;;6127040;23;20440;-92
2022/10/15 05:58:22;;;;;;;13.10;12.00;;;18.20;99.90;;;;;;6112582;23;20495;-93
2022/10/15 06:02:05;;;;;;;13.52;12.52;;;18.50;99.90;;;;;;6119495;23;20010;-92
2022/10/15 06:07:24;;;;;;;15.68;14.40;;;19.20;99.90;;;;;;6264089;22;20027;-93
2022/10/15 06:10:10;;;;;;;15.60;14.52;;;19.20;99.90;;;;;;6194954;23;20028;-93
2022/10/15 06:12:43;;;;;;;16.67;15.30;;;19.20;99.90;;;;;;6195528;23;20017;-94
2022/10/15 06:15:33;;;;;;;16.77;15.63;;;19.30;99.90;;;;;;6195892;23;20095;-93
2022/10/15 06:18:01;;;;;;;17.55;15.80;;;19.60;99.90;;;;;;6171698;23;20005;-92
2022/10/15 06:23:53;;;;;;;14.07;13.07;;;20.20;99.90;;;;;;6222190;22;20025;-93
2022/10/15 06:34:59;;;;;;;15.52;14.52;;;20.30;99.90;;;;;;6078197;23;20147;-94
2022/10/15 06:38:45;;;;;;;;;;;;;;;;;;;;;
2022/10/15 15:36:23;;;;;;;16.55;15.13;;;19.00;99.90;;;;;;6249830;22;20048;-86
2022/10/15 15:38:49;;;;;;;17.30;15.73;;;18.90;99.90;;;;;;6223646;23;20012;-87
2022/10/15 15:41:19;;;;;;;17.85;16.38;;;18.80;99.90;;;;;;6221090;23;20008;-87
2022/10/15 15:43:49;;;;;;;18.05;16.38;;;18.80;99.90;;;;;;6220829;23;20031;-86
2022/10/15 15:46:16;;;;;;;20.40;15.30;;;18.70;99.90;;;;;;6221103;23;20065;-90
2022/10/15 15:55:04;;;;;;;17.70;16.10;;;18.60;99.90;;;;;;6250891;22;20054;-93
2022/10/15 15:57:26;;;;;;;17.02;15.70;;;18.50;99.90;;;;;;6185847;23;20004;-92
2022/10/15 15:59:53;;;;;;;17.70;15.90;;;18.40;99.90;;;;;;6189989;23;20023;-93
2022/10/15 16:02:20;;;;;;;18.00;16.38;;;18.40;99.90;;;;;;6194165;23;20011;-93
2022/10/15 16:07:30;;;;;;;17.42;16.13;;;18.30;99.90;;;;;;6249154;23;20074;-92
2022/10/15 16:10:10;;;;;;;;;;;;;;;;;;;;;
2022/10/15 16:13:24;;;;;;;16.47;15.27;;;18.20;99.90;;;;;;6133229;23;20013;-92
2022/10/15 16:16:14;;;;;;;17.73;15.85;;;18.20;99.90;;;;;;6127789;23;20064;-93
2022/10/15 16:27:34;;;;;;;16.77;15.52;;;18.00;99.90;;;;;;6214940;22;20023;-92
2022/10/15 16:30:04;;;;;;;17.73;15.50;;;18.00;99.90;;;;;;6085436;23;20026;-91
2022/10/15 16:32:33;;;;;;;17.05;15.57;;;18.00;99.90;;;;;;6060882;23;20010;-91
2022/10/15 16:35:02;;;;;;;17.05;15.85;;;18.00;99.90;;;;;;6060951;23;20047;-91
2022/10/15 16:37:31;;;;;;;16.85;15.55;;;17.90;99.90;;;;;;6084191;23;20014;-90
2022/10/15 16:39:58;;;;;;;16.77;15.18;;;17.90;99.90;;;;;;6106828;23;20029;-91
2022/10/15 16:42:29;;;;;;;17.38;15.77;;;17.80;99.90;;;;;;6211353;22;20025;-91
2022/10/15 16:45:05;;;;;;;17.38;15.55;;;17.80;99.90;;;;;;6193448;23;20012;-92
2022/10/15 16:47:32;;;;;;;16.85;15.65;;;17.70;99.90;;;;;;6158945;23;20412;-92
2022/10/15 16:50:02;;;;;;;17.52;16.13;;;17.70;99.90;;;;;;6158397;23;19998;-92
2022/10/15 16:52:33;;;;;;;17.50;16.23;;;17.70;99.90;;;;;;6157407;23;20009;-91
2022/10/15 16:55:00;;;;;;;17.35;16.05;;;17.60;99.90;;;;;;6163762;23;20029;-91
2022/10/15 16:57:27;;;;;;;17.23;15.77;;;17.60;99.90;;;;;;6159292;23;20005;-94
2022/10/15 16:59:54;;;;;;;18.30;16.63;;;17.60;99.90;;;;;;6159898;23;20021;-91
2022/10/15 17:02:21;;;;;;;18.17;16.70;;;17.50;99.90;;;;;;6160584;23;20005;-91
2022/10/15 17:04:51;;;;;;;19.25;17.45;;;17.50;99.90;;;;;;6159845;23;20036;-91
2022/10/15 17:07:21;;;;;;;18.40;16.92;;;17.40;99.90;;;;;;6165191;23;20005;-91
2022/10/15 17:09:55;;;;;;;19.25;17.20;;;17.40;99.90;;;;;;6209527;23;20024;-92
2022/10/15 17:12:25;;;;;;;17.77;16.17;;;17.40;99.90;;;;;;6236276;23;20004;-91
2022/10/15 17:15:01;;;;;;;18.35;16.85;;;17.30;99.90;;;;;;6233448;23;20016;-92
2022/10/15 17:17:28;;;;;;;18.40;16.90;;;17.30;99.90;;;;;;6228239;23;20009;-92
2022/10/15 17:20:07;;;;;;;19.10;17.63;;;17.30;99.90;;;;;;6228177;23;20012;-92
2022/10/15 17:22:34;;;;;;;18.00;16.63;;;17.20;99.90;;;;;;6197933;23;20028;-91
2022/10/15 17:25:08;;;;;;;18.08;16.67;;;17.20;99.90;;;;;;6225941;23;20075;-92
2022/10/15 17:27:41;;;;;;;18.27;16.83;;;17.20;99.90;;;;;;6199947;23;20009;-90
2022/10/15 17:30:09;;;;;;;18.13;16.48;;;17.20;99.90;;;;;;6193730;23;20008;-92
2022/10/15 17:32:35;;;;;;;18.40;16.77;;;17.10;99.90;;;;;;6203260;23;20128;-91
2022/10/15 17:35:11;;;;;;;18.27;16.88;;;17.10;99.90;;;;;;6227694;23;20078;-89
2022/10/15 17:37:38;;;;;;;19.10;17.38;;;17.10;99.90;;;;;;6202443;23;20009;-91
2022/10/15 17:40:06;;;;;;;18.27;16.45;;;17.00;99.90;;;;;;6224461;23;20434;-91
2022/10/15 17:42:37;;;;;;;18.63;16.73;;;17.00;99.90;;;;;;6198291;23;20004;-91
2022/10/15 17:45:11;;;;;;;18.45;16.83;;;16.90;99.90;;;;;;6217895;23;20016;-91
2022/10/15 17:47:38;;;;;;;18.40;16.80;;;16.90;99.90;;;;;;6216015;23;20008;-92
2022/10/15 17:50:13;;;;;;;18.33;16.80;;;16.90;99.90;;;;;;6216216;23;20011;-91
2022/10/15 17:52:41;;;;;;;18.05;16.60;;;16.90;99.90;;;;;;6193594;23;20041;-92
2022/10/15 17:55:08;;;;;;;18.00;16.38;;;16.80;99.90;;;;;;6217578;23;20004;-91
2022/10/15 17:57:41;;;;;;;16.63;15.23;;;16.80;99.90;;;;;;6216291;23;20036;-91
2022/10/15 18:00:10;;;;;;;18.13;15.93;;;16.80;99.90;;;;;;6194926;23;20362;-91
2022/10/15 18:03:00;;;;;;;16.85;15.30;;;16.80;99.90;;;;;;6216261;23;20020;-92
2022/10/15 18:05:27;;;;;;;17.13;15.57;;;16.70;99.90;;;;;;6191677;23;20017;-89
2022/10/15 18:07:53;;;;;;;17.35;15.77;;;16.70;99.90;;;;;;6216184;23;20016;-92
2022/10/15 18:10:23;;;;;;;18.83;17.00;;;16.70;99.90;;;;;;6191693;23;20032;-93
2022/10/15 18:12:53;;;;;;;17.67;15.90;;;16.60;99.90;;;;;;6190870;23;20004;-91
2022/10/15 18:15:21;;;;;;;19.80;16.83;;;16.60;99.90;;;;;;6216705;23;20142;-91
2022/10/15 18:17:48;;;;;;;16.98;15.20;;;16.60;99.90;;;;;;6192765;23;20083;-92
2022/10/15 18:20:15;;;;;;;17.30;15.57;;;16.50;99.90;;;;;;6193308;23;20017;-93
2022/10/15 18:22:45;;;;;;;18.65;15.63;;;16.50;99.90;;;;;;6216919;23;20438;-91
2022/10/15 18:25:12;;;;;;;16.45;14.88;;;16.50;99.90;;;;;;6192820;23;20437;-91
2022/10/15 18:27:38;;;;;;;17.10;15.43;;;16.50;99.90;;;;;;6216982;23;20004;-91
2022/10/15 18:30:05;;;;;;;17.52;15.70;;;16.50;99.90;;;;;;6216917;23;20008;-91
2022/10/15 18:32:32;;;;;;;18.17;14.70;;;16.40;99.90;;;;;;6217037;23;20079;-91
2022/10/15 18:35:08;;;;;;;19.27;15.18;;;16.40;99.90;;;;;;6191715;23;20472;-92
2022/10/15 18:37:35;;;;;;;17.08;14.93;;;16.40;99.90;;;;;;6192311;23;20005;-92
2022/10/15 18:40:11;;;;;;;17.63;15.32;;;16.40;99.90;;;;;;6217934;23;20012;-93
2022/10/15 18:42:48;;;;;;;17.85;16.10;;;16.40;99.90;;;;;;6219442;23;20011;-92
2022/10/15 18:45:47;;;;;;;;;;;;;;;;;;;;;
2022/10/15 18:51:32;;;;;;;19.40;15.85;;;16.30;99.90;;;;;;6159048;23;20017;-94
2022/10/15 18:54:17;;;;;;;20.80;16.00;;;16.20;99.90;;;;;;6132648;23;20005;-93
2022/10/15 19:00:17;;;;;;;18.50;15.93;;;16.10;99.90;;;;;;6134668;23;20025;-92
2022/10/15 19:03:12;;;;;;;20.15;16.17;;;16.00;99.90;;;;;;6110179;23;20010;-93
2022/10/15 19:05:49;;;;;;;18.23;16.25;;;16.00;99.90;;;;;;6108955;23;20005;-93
2022/10/15 19:08:29;;;;;;;17.80;16.00;;;16.00;99.90;;;;;;6132950;23;20013;-93
2022/10/15 19:11:07;;;;;;;18.77;15.68;;;15.90;99.90;;;;;;6134811;23;20021;-94
2022/10/15 19:13:35;;;;;;;17.58;15.25;;;16.00;99.90;;;;;;6131599;23;20018;-93
2022/10/15 19:16:09;;;;;;;24.30;15.60;;;16.00;99.90;;;;;;6131906;23;20005;-92
2022/10/15 19:18:49;;;;;;;25.67;16.73;;;16.00;99.90;;;;;;6133756;23;20347;-93
2022/10/15 19:21:19;;;;;;;16.33;14.52;;;16.00;99.90;;;;;;6132080;23;20024;-93
2022/10/15 19:26:57;;;;;;;22.65;15.77;;;15.80;99.90;;;;;;6244297;22;20024;-92
2022/10/15 19:29:24;;;;;;;25.67;17.55;;;15.90;99.90;;;;;;6196642;23;20055;-92
2022/10/15 19:31:53;;;;;;;20.48;16.17;;;16.00;99.90;;;;;;6196988;23;20016;-92
2022/10/15 19:34:21;;;;;;;24.90;15.80;;;16.00;99.90;;;;;;6196946;23;20014;-91
2022/10/15 19:36:51;;;;;;;22.30;16.70;;;16.00;99.90;;;;;;6214966;23;20016;-92
2022/10/15 19:39:46;;;;;;;22.08;16.60;;;15.90;99.90;;;;;;6165288;23;20051;-91
2022/10/15 19:42:14;;;;;;;21.40;16.38;;;15.90;99.90;;;;;;6187386;23;20009;-93
2022/10/15 19:44:43;;;;;;;22.08;16.67;;;15.80;99.90;;;;;;6187601;23;20017;-92
2022/10/15 19:47:10;;;;;;;23.65;16.38;;;15.80;99.90;;;;;;6184993;23;20012;-92
2022/10/15 19:49:36;;;;;;;24.92;16.30;;;15.70;99.90;;;;;;6185820;23;20073;-91
2022/10/15 19:52:03;;;;;;;21.17;15.43;;;15.80;99.90;;;;;;6185990;23;20012;-92
2022/10/15 19:54:45;;;;;;;21.95;15.98;;;15.70;99.90;;;;;;6185142;23;20123;-92
2022/10/15 19:57:13;;;;;;;20.25;15.85;;;15.70;99.90;;;;;;6184845;23;20005;-93
2022/10/15 19:59:40;;;;;;;23.55;16.55;;;15.70;99.90;;;;;;6185345;23;20013;-93
2022/10/15 20:02:11;;;;;;;26.52;16.75;;;15.70;99.90;;;;;;6185230;23;20017;-93
2022/10/15 20:04:38;;;;;;;23.55;16.17;;;15.70;99.90;;;;;;6185452;23;20013;-92
2022/10/15 20:07:07;;;;;;;21.10;15.52;;;15.70;99.90;;;;;;6185093;23;20005;-93
2022/10/15 20:09:52;;;;;;;21.95;15.20;;;15.60;99.90;;;;;;6198346;23;20015;-92
2022/10/15 20:12:25;;;;;;;17.67;14.52;;;15.60;99.90;;;;;;6197394;23;20012;-91
2022/10/15 20:15:01;;;;;;;21.55;15.73;;;15.50;99.90;;;;;;6197010;23;20008;-94
2022/10/15 20:17:46;;;;;;;22.05;14.93;;;15.40;99.90;;;;;;6196492;23;20008;-92
2022/10/15 20:20:16;;;;;;;24.05;16.83;;;15.30;99.90;;;;;;6221962;23;20091;-92
2022/10/15 20:22:42;;;;;;;24.48;14.88;;;15.30;99.90;;;;;;6196068;23;20004;-92
2022/10/15 20:25:12;;;;;;;23.52;15.50;;;15.30;99.90;;;;;;6221047;23;20092;-93
2022/10/15 20:27:42;;;;;;;24.50;15.10;;;15.30;99.90;;;;;;6197354;23;20004;-92
2022/10/15 20:30:10;;;;;;;20.88;14.68;;;15.40;99.90;;;;;;6196011;23;20349;-93
2022/10/15 20:37:33;;;;;;;22.38;14.90;;;15.30;99.90;;;;;;6209415;22;20078;-92
2022/10/15 20:40:26;;;;;;;19.55;15.07;;;15.20;99.90;;;;;;6019386;23;20084;-93
2022/10/15 20:43:13;;;;;;;25.13;15.55;;;15.10;99.90;;;;;;6019424;23;20182;-92
2022/10/15 20:45:45;;;;;;;26.10;16.42;;;15.00;99.90;;;;;;6015569;23;20086;-92
2022/10/15 20:48:30;;;;;;;29.02;17.02;;;15.00;99.90;;;;;;6015701;23;20007;-93
2022/10/15 20:50:57;;;;;;;24.48;16.65;;;15.00;99.90;;;;;;6039601;23;20008;-93
2022/10/15 20:53:26;;;;;;;31.05;17.02;;;15.00;99.90;;;;;;5992285;23;20338;-92
2022/10/15 20:55:53;;;;;;;25.65;16.92;;;15.00;99.90;;;;;;6015063;23;20011;-92
2022/10/15 20:58:21;;;;;;;23.38;14.98;;;14.90;99.90;;;;;;6038913;23;20008;-92
2022/10/15 21:00:48;;;;;;;28.13;17.25;;;14.90;99.90;;;;;;6014986;23;20370;-93
2022/10/15 21:03:17;;;;;;;21.85;15.85;;;15.00;99.90;;;;;;6015408;23;20007;-93
2022/10/15 21:05:44;;;;;;;27.45;16.85;;;15.00;99.90;;;;;;6015652;23;20019;-92
2022/10/15 21:08:23;;;;;;;23.67;15.85;;;15.10;99.90;;;;;;6015239;23;20048;-91
2022/10/15 21:10:50;;;;;;;24.90;16.38;;;15.20;99.90;;;;;;6015276;23;20031;-91
2022/10/15 21:13:16;;;;;;;25.83;15.07;;;15.20;99.90;;;;;;6015466;23;20163;-93
2022/10/15 21:15:43;;;;;;;25.38;16.73;;;15.20;99.90;;;;;;6072114;23;20012;-91
2022/10/15 21:18:09;;;;;;;30.60;16.55;;;15.30;99.90;;;;;;6165815;23;20005;-93
2022/10/15 21:20:36;;;;;;;27.02;17.10;;;15.20;99.90;;;;;;6191454;23;20024;-93
2022/10/15 21:23:12;;;;;;;26.42;17.58;;;15.20;99.90;;;;;;6165884;23;20001;-92
2022/10/15 21:25:39;;;;;;;28.58;17.17;;;15.10;99.90;;;;;;6190622;23;20076;-91
2022/10/15 21:28:09;;;;;;;24.40;16.63;;;15.10;99.90;;;;;;6165490;23;20004;-92
2022/10/15 21:30:39;;;;;;;26.52;16.08;;;15.00;99.90;;;;;;6165638;23;20017;-93
2022/10/15 21:33:06;;;;;;;21.52;14.30;;;14.90;99.90;;;;;;6165722;23;20024;-91
2022/10/15 21:35:33;;;;;;;21.67;14.23;;;14.80;99.90;;;;;;6190542;23;20447;-94
2022/10/15 21:37:59;;;;;;;18.45;13.40;;;14.70;99.90;;;;;;6165133;23;20016;-91
2022/10/15 21:40:26;;;;;;;25.02;14.55;;;14.60;99.90;;;;;;6165681;23;20508;-91
2022/10/15 21:42:55;;;;;;;22.15;14.65;;;14.50;99.90;;;;;;6165916;23;20001;-90
2022/10/15 21:45:22;;;;;;;21.63;15.05;;;14.40;99.90;;;;;;6190541;23;20013;-91
2022/10/15 21:47:49;;;;;;;24.27;15.27;;;14.30;99.90;;;;;;6165400;23;20009;-92
2022/10/15 21:50:15;;;;;;;19.27;14.13;;;14.30;99.90;;;;;;6191150;23;20009;-92
2022/10/15 21:52:42;;;;;;;22.83;15.35;;;14.30;99.90;;;;;;6167491;23;20001;-93
2022/10/15 21:55:11;;;;;;;24.73;15.57;;;14.30;99.90;;;;;;6167401;23;20008;-92
2022/10/15 21:57:38;;;;;;;29.35;16.23;;;14.30;99.90;;;;;;6189588;23;19996;-91
2022/10/15 22:00:12;;;;;;;26.83;16.70;;;14.30;99.90;;;;;;6193645;23;20023;-91
2022/10/15 22:02:42;;;;;;;26.92;16.00;;;14.30;99.90;;;;;;6192727;23;20044;-90
2022/10/15 22:05:08;;;;;;;24.88;15.73;;;14.30;99.90;;;;;;6167338;23;20087;-94
2022/10/15 22:07:35;;;;;;;25.27;15.73;;;14.30;99.90;;;;;;6191898;23;20005;-91
2022/10/15 22:10:02;;;;;;;26.48;16.42;;;14.30;99.90;;;;;;6167356;23;20088;-91
2022/10/15 22:12:29;;;;;;;22.75;15.90;;;14.30;99.90;;;;;;6192040;23;20009;-91
2022/10/15 22:14:55;;;;;;;29.98;16.98;;;14.30;99.90;;;;;;6167334;23;20071;-91
2022/10/15 22:17:22;;;;;;;30.20;16.55;;;14.30;99.90;;;;;;6192517;23;20009;-92
2022/10/15 22:19:49;;;;;;;25.88;17.13;;;14.30;99.90;;;;;;6167585;23;20017;-92
2022/10/15 22:22:17;;;;;;;24.15;16.13;;;14.30;99.90;;;;;;6191698;23;20015;-91
2022/10/15 22:24:44;;;;;;;27.15;18.05;;;14.30;99.90;;;;;;6167084;23;20087;-91
2022/10/15 22:27:11;;;;;;;29.75;17.92;;;14.30;99.90;;;;;;6191756;23;20096;-91
2022/10/15 22:29:38;;;;;;;26.42;17.30;;;14.30;99.90;;;;;;6167398;23;20009;-92
2022/10/15 22:32:05;;;;;;;27.35;17.00;;;14.30;99.90;;;;;;6191823;23;20084;-93
2022/10/15 22:34:32;;;;;;;28.80;17.67;;;14.30;99.90;;;;;;6167011;23;20016;-90
2022/10/15 22:36:58;;;;;;;27.73;17.77;;;14.30;99.90;;;;;;6167714;23;20091;-92
2022/10/15 22:39:24;;;;;;;28.25;17.73;;;14.30;99.90;;;;;;6167185;23;20017;-91
2022/10/15 22:41:53;;;;;;;29.02;18.73;;;14.30;99.90;;;;;;6167950;23;20019;-91
2022/10/15 22:44:23;;;;;;;23.77;16.20;;;14.30;99.90;;;;;;6170720;23;20012;-90
2022/10/15 22:46:55;;;;;;;25.88;16.42;;;14.30;99.90;;;;;;6167036;23;20430;-91
2022/10/15 22:49:22;;;;;;;25.70;16.55;;;14.20;99.90;;;;;;6167040;23;20013;-89
2022/10/15 22:51:50;;;;;;;26.25;16.65;;;14.20;99.90;;;;;;6166881;23;20001;-91